Time;durP1;ratioP1;P1;durP2;ratioP2;P2;SDS_P1;SDS_P2;PMS_P1;PMS_P2;Temp;Humidity;BMP_temperature;BMP_pressure;BME280_temperature;BME280_humidity;BME280_pressure;Samples;Min_cycle;Max_cycle;Signal;HPM_P1;HPM_P2
2022/02/08 00:02:15;;;;;;;13.33;1.63;;;4.20;99.90;;;;;;5087613;28;20518;-57
2022/02/08 00:04:42;;;;;;;11.03;1.17;;;4.10;99.90;;;;;;5088255;28;20485;-58
2022/02/08 00:07:11;;;;;;;13.60;1.83;;;4.10;99.90;;;;;;5087332;28;20451;-60
2022/02/08 00:09:38;;;;;;;3.60;1.80;;;4.10;99.90;;;;;;5086656;28;20587;-63
2022/02/08 00:12:06;;;;;;;2.23;1.00;;;4.10;99.90;;;;;;5086366;28;20938;-56
2022/02/08 00:14:33;;;;;;;7.70;1.40;;;4.10;99.90;;;;;;5087333;28;20518;-54
2022/02/08 00:17:01;;;;;;;8.47;1.63;;;4.10;99.90;;;;;;5086751;28;20470;-57
2022/02/08 00:19:28;;;;;;;13.07;1.70;;;4.10;99.90;;;;;;5085204;28;20501;-61
2022/02/08 00:21:55;;;;;;;7.90;2.33;;;4.10;99.90;;;;;;5085735;28;20463;-61
2022/02/08 00:24:22;;;;;;;5.70;1.43;;;4.10;99.90;;;;;;5084999;28;20457;-61
2022/02/08 00:26:49;;;;;;;12.90;1.93;;;4.10;99.90;;;;;;5084740;28;20478;-56
2022/02/08 00:29:16;;;;;;;3.10;2.10;;;4.20;99.90;;;;;;5084862;28;20446;-50
2022/02/08 00:31:43;;;;;;;3.00;1.23;;;4.20;99.90;;;;;;5085118;28;20442;-57
2022/02/08 00:34:11;;;;;;;3.73;2.33;;;4.30;99.90;;;;;;5085337;28;20457;-62
2022/02/08 00:36:37;;;;;;;5.73;1.40;;;4.30;99.90;;;;;;5085022;28;20517;-60
2022/02/08 00:39:07;;;;;;;6.93;1.27;;;4.30;99.90;;;;;;5084296;28;20481;-61
2022/02/08 00:41:34;;;;;;;4.07;2.07;;;4.30;99.90;;;;;;5084973;28;20443;-56
2022/02/08 00:44:05;;;;;;;1.33;1.13;;;4.30;99.90;;;;;;5084110;28;20921;-58
2022/02/08 00:46:38;;;;;;;3.20;1.43;;;4.40;99.90;;;;;;5084044;28;20485;-62
2022/02/08 00:49:07;;;;;;;5.40;1.67;;;4.40;99.90;;;;;;5083625;28;20485;-59
2022/02/08 00:51:42;;;;;;;0.90;0.70;;;4.40;99.90;;;;;;5084266;28;20492;-58
2022/02/08 00:54:09;;;;;;;20.03;3.27;;;4.40;99.90;;;;;;5085952;28;20435;-60
2022/02/08 00:56:36;;;;;;;1.10;0.90;;;4.40;99.90;;;;;;5085477;28;20539;-61
2022/02/08 00:59:03;;;;;;;2.70;1.17;;;4.40;99.90;;;;;;5085181;28;20490;-55
2022/02/08 01:01:34;;;;;;;5.73;1.70;;;4.40;99.90;;;;;;5084445;28;20447;-61
2022/02/08 01:04:01;;;;;;;3.93;1.10;;;4.50;99.90;;;;;;5084264;28;20439;-59
2022/02/08 01:06:28;;;;;;;8.10;1.30;;;4.50;99.90;;;;;;5084253;28;20451;-62
2022/02/08 01:09:07;;;;;;;7.60;1.93;;;4.50;99.90;;;;;;5084849;28;20493;-61
2022/02/08 01:11:34;;;;;;;2.37;1.30;;;4.50;99.90;;;;;;5085286;28;20490;-60
2022/02/08 01:14:01;;;;;;;3.60;1.00;;;4.50;99.90;;;;;;5084269;28;20512;-61
2022/02/08 01:16:28;;;;;;;16.43;1.93;;;4.50;99.90;;;;;;5086522;28;20478;-56
2022/02/08 01:18:57;;;;;;;19.70;1.97;;;4.50;99.90;;;;;;5086321;28;20435;-60
2022/02/08 01:21:24;;;;;;;7.83;2.00;;;4.50;99.90;;;;;;5084452;28;20478;-56
2022/02/08 01:23:51;;;;;;;5.47;1.23;;;4.50;99.90;;;;;;5084155;28;20966;-56
2022/02/08 01:26:20;;;;;;;2.07;1.00;;;4.50;99.90;;;;;;5083187;28;20443;-58
2022/02/08 01:28:52;;;;;;;3.60;1.40;;;4.50;99.90;;;;;;5083420;28;20470;-59
2022/02/08 01:31:20;;;;;;;1.73;0.93;;;4.60;99.90;;;;;;5082219;28;20454;-60
2022/02/08 01:36:48;;;;;;;1.43;1.10;;;4.60;99.90;;;;;;5083419;28;20774;-60
2022/02/08 01:39:22;;;;;;;12.10;1.30;;;4.60;99.90;;;;;;5083282;28;20455;-60
2022/02/08 01:42:17;;;;;;;4.47;0.90;;;4.60;99.90;;;;;;5082616;28;20529;-56
2022/02/08 01:44:57;;;;;;;3.13;1.23;;;4.60;99.90;;;;;;5083222;28;20457;-60
2022/02/08 01:47:28;;;;;;;1.53;1.03;;;4.60;99.90;;;;;;5082918;28;20524;-61
2022/02/08 01:50:11;;;;;;;4.53;0.90;;;4.50;99.90;;;;;;5083083;28;20454;-58
2022/02/08 01:52:38;;;;;;;3.77;1.40;;;4.40;99.90;;;;;;5087467;28;20887;-59
2022/02/08 01:55:06;;;;;;;21.10;2.20;;;4.40;99.90;;;;;;5087476;28;20466;-58
2022/02/08 01:57:34;;;;;;;17.97;1.43;;;4.30;99.90;;;;;;5086782;28;20485;-60
2022/02/08 02:00:04;;;;;;;5.60;1.70;;;4.30;99.90;;;;;;5086372;28;20466;-54
2022/02/08 02:02:31;;;;;;;2.83;1.30;;;4.20;99.90;;;;;;5087221;28;20435;-60
2022/02/08 02:04:57;;;;;;;4.03;1.53;;;4.20;99.90;;;;;;5086898;28;20446;-61
2022/02/08 02:07:25;;;;;;;8.63;1.80;;;4.20;99.90;;;;;;5085877;28;20530;-61
2022/02/08 02:09:52;;;;;;;2.37;1.60;;;4.20;99.90;;;;;;5085654;28;20465;-61
2022/02/08 02:12:19;;;;;;;1.33;0.97;;;4.20;99.90;;;;;;5086868;28;20478;-60
2022/02/08 02:14:47;;;;;;;2.03;1.17;;;4.10;99.90;;;;;;5086527;28;20527;-59
2022/02/08 02:17:14;;;;;;;3.63;1.10;;;4.10;99.90;;;;;;5085927;28;20482;-54
2022/02/08 02:19:41;;;;;;;2.60;1.00;;;4.10;99.90;;;;;;5086544;28;20814;-58
2022/02/08 02:22:09;;;;;;;6.00;1.43;;;4.00;99.90;;;;;;5085586;28;20461;-60
2022/02/08 02:24:38;;;;;;;4.53;1.20;;;4.00;99.90;;;;;;5084758;28;20478;-56
2022/02/08 02:27:06;;;;;;;3.53;1.30;;;4.00;99.90;;;;;;5085813;28;20553;-62
2022/02/08 02:29:33;;;;;;;2.93;1.00;;;4.00;99.90;;;;;;5086805;28;20490;-61
2022/02/08 02:32:01;;;;;;;2.80;1.80;;;4.00;99.90;;;;;;5086329;28;20422;-59
2022/02/08 02:34:28;;;;;;;4.80;1.80;;;4.00;99.90;;;;;;5087397;28;20443;-54
2022/02/08 02:36:55;;;;;;;7.60;1.30;;;4.00;99.90;;;;;;5085898;28;20491;-60
2022/02/08 02:39:24;;;;;;;17.63;2.10;;;4.00;99.90;;;;;;5087488;28;20439;-55
2022/02/08 02:41:53;;;;;;;3.30;1.10;;;4.10;99.90;;;;;;5098910;28;20493;-58
2022/02/08 02:44:23;;;;;;;4.70;2.10;;;4.10;99.90;;;;;;5098004;28;20435;-57
2022/02/08 02:46:51;;;;;;;6.20;1.43;;;4.10;99.90;;;;;;5098605;28;20427;-49
2022/02/08 02:49:17;;;;;;;3.57;1.80;;;4.20;99.90;;;;;;5098654;28;20434;-52
2022/02/08 02:51:44;;;;;;;5.33;1.07;;;4.20;99.90;;;;;;5098603;28;20431;-54
2022/02/08 02:54:18;;;;;;;1.67;1.20;;;4.20;99.90;;;;;;5097362;28;20466;-54
2022/02/08 02:56:47;;;;;;;6.63;1.63;;;4.30;99.90;;;;;;5097737;28;20499;-53
2022/02/08 02:59:17;;;;;;;6.20;1.70;;;4.30;99.90;;;;;;5097924;28;20463;-57
2022/02/08 03:02:10;;;;;;;7.03;1.97;;;4.30;99.90;;;;;;5096842;28;20438;-59
2022/02/08 03:04:48;;;;;;;3.63;1.70;;;4.30;99.90;;;;;;5097588;28;20418;-54
2022/02/08 03:18:33;;;;;;;11.80;1.70;;;4.50;99.90;;;;;;5097143;28;20500;-50
2022/02/08 03:21:01;;;;;;;5.90;2.00;;;4.50;99.90;;;;;;5097423;28;20459;-51
2022/02/08 03:23:28;;;;;;;15.53;1.70;;;4.50;99.90;;;;;;5097114;28;20446;-52
2022/02/08 03:25:55;;;;;;;2.33;0.90;;;4.50;99.90;;;;;;5096895;28;20530;-54
2022/02/08 03:28:21;;;;;;;3.80;1.47;;;4.50;99.90;;;;;;5096745;28;20437;-54
2022/02/08 03:30:49;;;;;;;7.47;1.07;;;4.50;99.90;;;;;;5096669;28;20489;-48
2022/02/08 03:33:17;;;;;;;2.50;1.17;;;4.60;99.90;;;;;;5096758;28;20473;-55
2022/02/08 03:35:44;;;;;;;3.30;1.23;;;4.60;99.90;;;;;;5096778;28;20483;-54
2022/02/08 03:38:13;;;;;;;4.70;1.43;;;4.60;99.90;;;;;;5096325;28;20431;-58
2022/02/08 03:40:45;;;;;;;3.77;1.20;;;4.50;99.90;;;;;;5096673;28;20446;-51
2022/02/08 03:43:15;;;;;;;10.37;1.23;;;4.50;99.90;;;;;;5096497;28;20455;-55
2022/02/08 03:45:44;;;;;;;3.10;1.40;;;4.50;99.90;;;;;;5095822;28;20438;-52
2022/02/08 03:48:15;;;;;;;7.70;1.60;;;4.50;99.90;;;;;;5096463;28;20439;-53
2022/02/08 03:50:44;;;;;;;1.60;1.20;;;4.50;99.90;;;;;;5096471;28;20504;-57
2022/02/08 03:53:11;;;;;;;4.33;1.63;;;4.50;99.90;;;;;;5096180;28;20458;-60
2022/02/08 03:55:40;;;;;;;1.40;1.27;;;4.50;99.90;;;;;;5096129;28;20459;-58
2022/02/08 03:58:09;;;;;;;2.70;1.60;;;4.50;99.90;;;;;;5096104;28;20427;-51
2022/02/08 04:00:46;;;;;;;7.80;1.90;;;4.40;99.90;;;;;;5096169;28;20458;-52
2022/02/08 04:03:14;;;;;;;8.10;1.83;;;4.40;99.90;;;;;;5096519;28;20454;-55
2022/02/08 04:05:44;;;;;;;5.77;1.60;;;4.40;99.90;;;;;;5095790;28;20447;-58
2022/02/08 04:08:13;;;;;;;5.83;1.80;;;4.50;99.90;;;;;;5095016;28;20431;-59
2022/02/08 04:10:42;;;;;;;18.17;2.07;;;4.40;99.90;;;;;;5094722;28;20443;-51
2022/02/08 04:13:14;;;;;;;7.90;2.53;;;4.40;99.90;;;;;;5094136;28;20493;-57
2022/02/08 04:18:46;;;;;;;4.40;1.70;;;4.40;99.90;;;;;;5094771;28;20426;-56
2022/02/08 04:32:41;;;;;;;3.57;1.60;;;4.50;99.90;;;;;;5094505;28;20530;-60
2022/02/08 04:35:35;;;;;;;3.50;1.53;;;4.50;99.90;;;;;;5094261;28;20442;-57
2022/02/08 04:38:13;;;;;;;5.73;2.53;;;4.60;99.90;;;;;;5094521;28;20538;-50
2022/02/08 04:40:54;;;;;;;12.27;2.73;;;4.60;99.90;;;;;;5094596;28;20431;-57
2022/02/08 04:43:31;;;;;;;4.30;1.87;;;4.70;99.90;;;;;;5094345;28;20462;-60
2022/02/08 04:46:02;;;;;;;2.20;1.53;;;4.60;99.90;;;;;;5094692;28;20442;-55
2022/02/08 04:51:19;;;;;;;8.47;2.40;;;4.70;99.90;;;;;;5093332;28;20481;-54
2022/02/08 04:53:53;;;;;;;2.40;1.33;;;4.70;99.90;;;;;;5094328;28;20415;-55
2022/02/08 04:56:30;;;;;;;4.30;1.93;;;4.70;99.90;;;;;;5093592;28;20494;-59
2022/02/08 04:59:09;;;;;;;2.70;1.23;;;4.70;99.90;;;;;;5094048;28;20438;-56
2022/02/08 05:01:48;;;;;;;5.73;1.93;;;4.80;99.90;;;;;;5093847;28;20455;-56
2022/02/08 05:40:37;;;;;;;3.37;1.97;;;4.90;99.90;;;;;;5097627;28;20504;-55
2022/02/08 05:43:26;;;;;;;6.87;1.97;;;5.00;99.90;;;;;;5074137;28;20438;-57
2022/02/08 05:46:27;;;;;;;19.03;1.90;;;5.00;99.90;;;;;;5097815;28;20442;-58
2022/02/08 05:49:01;;;;;;;5.10;1.60;;;5.00;99.90;;;;;;5098594;28;20522;-57
2022/02/08 05:51:44;;;;;;;5.17;2.50;;;5.00;99.90;;;;;;5098882;28;20498;-61
2022/02/08 05:54:11;;;;;;;8.03;1.60;;;5.00;99.90;;;;;;5098874;28;20420;-62
2022/02/08 05:56:39;;;;;;;7.53;2.20;;;5.00;99.90;;;;;;5098725;28;20496;-62
2022/02/08 05:59:09;;;;;;;6.60;1.97;;;5.00;99.90;;;;;;5099347;28;20446;-59
2022/02/08 06:01:36;;;;;;;3.70;1.90;;;5.00;99.90;;;;;;5099633;28;20495;-62
2022/02/08 06:04:03;;;;;;;6.50;2.17;;;5.00;99.90;;;;;;5099384;28;20458;-52
2022/02/08 06:06:31;;;;;;;3.73;1.50;;;5.00;99.90;;;;;;5099439;28;20461;-54
2022/02/08 06:09:00;;;;;;;4.53;2.53;;;5.00;99.90;;;;;;5098650;28;20467;-52
2022/02/08 06:11:28;;;;;;;3.73;2.33;;;4.90;99.90;;;;;;5097852;28;20469;-57
2022/02/08 06:13:58;;;;;;;5.97;2.10;;;4.90;99.90;;;;;;5098265;28;20438;-60
2022/02/08 06:16:25;;;;;;;5.30;2.47;;;5.00;99.90;;;;;;5097936;28;20487;-61
2022/02/08 06:18:52;;;;;;;3.33;2.00;;;5.00;99.90;;;;;;5097443;28;20438;-51
2022/02/08 06:21:18;;;;;;;2.93;1.80;;;5.00;99.90;;;;;;5098077;28;20447;-48
2022/02/08 06:23:45;;;;;;;16.17;3.90;;;5.00;99.90;;;;;;5097684;28;20446;-51
2022/02/08 06:26:14;;;;;;;9.30;3.70;;;5.00;99.90;;;;;;5097110;28;20443;-51
2022/02/08 06:28:40;;;;;;;6.30;3.53;;;5.00;99.90;;;;;;5086682;28;20420;-55
2022/02/08 06:31:09;;;;;;;10.73;4.53;;;5.10;99.90;;;;;;5098788;28;20459;-50
2022/02/08 06:33:36;;;;;;;16.03;2.93;;;5.10;99.90;;;;;;5099230;28;20489;-54
2022/02/08 06:36:06;;;;;;;4.60;2.80;;;5.10;99.90;;;;;;5091651;28;20503;-54
2022/02/08 06:38:32;;;;;;;4.83;3.40;;;5.00;99.90;;;;;;5098531;28;20509;-53
2022/02/08 06:40:59;;;;;;;4.43;2.80;;;5.00;99.90;;;;;;5079171;28;20487;-59
2022/02/08 06:43:30;;;;;;;4.60;2.77;;;5.00;99.90;;;;;;5078536;28;20482;-50
2022/02/08 06:45:56;;;;;;;4.37;3.70;;;5.00;99.90;;;;;;5078725;28;20446;-43
2022/02/08 06:48:24;;;;;;;7.70;3.27;;;5.10;99.90;;;;;;5078940;28;20466;-49
2022/02/08 06:50:52;;;;;;;9.90;3.60;;;5.10;99.90;;;;;;5078697;28;20487;-50
2022/02/08 06:53:19;;;;;;;7.00;3.60;;;5.10;99.90;;;;;;5078230;28;20480;-55
2022/02/08 06:55:46;;;;;;;6.87;3.17;;;5.20;99.90;;;;;;5078457;28;20440;-50
2022/02/08 06:58:15;;;;;;;6.97;3.60;;;5.20;99.90;;;;;;5078088;28;20488;-51
2022/02/08 07:00:45;;;;;;;8.73;5.00;;;5.20;99.90;;;;;;5112484;28;20463;-54
2022/02/08 07:03:14;;;;;;;4.53;3.13;;;5.20;99.90;;;;;;5117371;28;20469;-54
2022/02/08 07:05:43;;;;;;;8.43;4.50;;;5.20;99.90;;;;;;5117181;28;20441;-57
2022/02/08 07:08:11;;;;;;;9.50;4.43;;;5.20;99.90;;;;;;5115291;28;20458;-51
2022/02/08 07:10:39;;;;;;;9.37;4.17;;;5.20;99.90;;;;;;5097681;28;20431;-44
2022/02/08 07:13:07;;;;;;;12.97;4.10;;;5.30;99.90;;;;;;5096857;28;20452;-50
2022/02/08 07:15:34;;;;;;;6.67;3.27;;;5.40;99.90;;;;;;5097113;28;20455;-47
2022/02/08 07:18:02;;;;;;;5.97;2.80;;;5.40;99.90;;;;;;5094444;28;20478;-53
2022/02/08 07:20:31;;;;;;;6.10;4.00;;;5.40;99.90;;;;;;5091584;28;20485;-55
2022/02/08 07:22:59;;;;;;;9.07;6.80;;;5.50;99.90;;;;;;5091879;28;20458;-56
2022/02/08 07:25:29;;;;;;;6.13;3.40;;;5.50;99.90;;;;;;5092132;28;20466;-56
2022/02/08 07:27:57;;;;;;;7.03;3.63;;;5.50;99.90;;;;;;5091819;28;20458;-56
2022/02/08 07:30:24;;;;;;;4.80;3.87;;;5.50;99.90;;;;;;5091759;28;20431;-54
2022/02/08 07:32:54;;;;;;;6.83;3.10;;;5.60;99.90;;;;;;5092513;28;20456;-55
2022/02/08 07:35:28;;;;;;;3.03;2.70;;;5.60;99.90;;;;;;5092245;28;20892;-53
2022/02/08 07:38:03;;;;;;;4.80;2.93;;;5.60;99.90;;;;;;5092275;28;20494;-58
2022/02/08 07:41:35;;;;;;;8.87;4.03;;;5.60;99.90;;;;;;5092270;28;20434;-52
2022/02/08 07:43:29;;;;;;;6.50;3.93;;;5.60;99.90;;;;;;5092687;28;20466;-58
2022/02/08 07:45:56;;;;;;;9.73;3.57;;;5.50;99.90;;;;;;5092722;28;20447;-55
2022/02/08 07:48:23;;;;;;;6.10;3.53;;;5.50;99.90;;;;;;5092214;28;20462;-58
2022/02/08 07:50:51;;;;;;;7.77;3.77;;;5.40;99.90;;;;;;5093429;28;20461;-56
2022/02/08 07:53:19;;;;;;;6.10;3.30;;;5.30;99.90;;;;;;5092793;28;20472;-58
2022/02/08 07:55:47;;;;;;;7.03;3.60;;;5.30;99.90;;;;;;5093368;28;20893;-54
2022/02/08 07:58:14;;;;;;;5.50;3.27;;;5.30;99.90;;;;;;5092954;28;20550;-56
2022/02/08 08:00:41;;;;;;;9.27;4.67;;;5.30;99.90;;;;;;5092539;28;20438;-56
2022/02/08 08:03:08;;;;;;;9.77;4.77;;;5.30;99.90;;;;;;5092176;28;20435;-57
2022/02/08 08:05:35;;;;;;;4.10;3.13;;;5.20;99.90;;;;;;5092876;28;20474;-46
2022/02/08 08:08:02;;;;;;;7.20;3.57;;;5.30;99.90;;;;;;5092562;28;20439;-55
2022/02/08 08:10:31;;;;;;;7.73;3.47;;;5.30;99.90;;;;;;5092885;28;20473;-54
2022/02/08 08:13:01;;;;;;;12.77;4.27;;;5.30;99.90;;;;;;5092569;28;20434;-56
2022/02/08 08:15:37;;;;;;;4.27;3.87;;;5.30;99.90;;;;;;5092436;28;20528;-56
2022/02/08 08:18:18;;;;;;;5.40;3.70;;;5.40;99.90;;;;;;5092969;28;20467;-53
2022/02/08 08:20:45;;;;;;;7.40;3.93;;;5.40;99.90;;;;;;5092544;28;20458;-48
2022/02/08 08:23:11;;;;;;;8.60;4.00;;;5.40;99.90;;;;;;5092024;28;20462;-52
2022/02/08 08:25:38;;;;;;;7.27;4.07;;;5.40;99.90;;;;;;5092818;28;20451;-46
2022/02/08 08:28:07;;;;;;;7.60;3.40;;;5.40;99.90;;;;;;5093414;28;20487;-54
2022/02/08 08:30:34;;;;;;;2.60;1.70;;;5.50;99.90;;;;;;5091989;28;20447;-54
2022/02/08 08:33:02;;;;;;;4.63;2.53;;;5.50;99.90;;;;;;5092914;28;20444;-53
2022/02/08 08:35:29;;;;;;;7.60;4.53;;;5.40;99.90;;;;;;5094197;28;21014;-51
2022/02/08 08:38:03;;;;;;;4.80;2.80;;;5.40;99.90;;;;;;5092524;28;20474;-56
2022/02/08 08:40:42;;;;;;;2.93;2.63;;;5.40;99.90;;;;;;5092738;28;20446;-58
2022/02/08 08:43:35;;;;;;;7.33;3.37;;;5.40;99.90;;;;;;5092785;28;20432;-56
2022/02/08 08:49:06;;;;;;;4.77;3.40;;;5.40;99.90;;;;;;5092809;28;20502;-53
2022/02/08 08:51:40;;;;;;;7.00;3.80;;;5.40;99.90;;;;;;5093201;28;20480;-55
2022/02/08 08:54:08;;;;;;;5.60;3.97;;;5.50;99.90;;;;;;5092944;28;20453;-53
2022/02/08 08:56:36;;;;;;;4.17;3.10;;;5.50;99.90;;;;;;5093113;28;20472;-51
2022/02/08 08:59:05;;;;;;;4.27;3.80;;;5.50;99.90;;;;;;5093148;28;20535;-52
2022/02/08 09:01:31;;;;;;;7.73;3.70;;;5.50;99.90;;;;;;5096154;28;20550;-52
2022/02/08 09:03:58;;;;;;;6.10;3.70;;;5.60;99.90;;;;;;5096443;28;20438;-56
2022/02/08 09:06:26;;;;;;;13.33;2.80;;;5.60;99.90;;;;;;5096071;28;20518;-54
2022/02/08 09:08:53;;;;;;;8.30;3.33;;;5.70;99.90;;;;;;5096409;28;20459;-49
2022/02/08 09:11:36;;;;;;;4.93;2.60;;;5.70;99.90;;;;;;5096308;28;20447;-51
2022/02/08 09:14:09;;;;;;;5.50;2.80;;;5.80;99.90;;;;;;5095689;28;20568;-53
2022/02/08 09:16:41;;;;;;;4.70;3.30;;;5.80;99.90;;;;;;5094272;28;20495;-55
2022/02/08 09:25:00;;;;;;;13.80;4.43;;;5.90;99.90;;;;;;5095578;28;20460;-54
2022/02/08 09:30:14;;;;;;;7.80;3.60;;;6.00;99.90;;;;;;5094739;28;20453;-55
2022/02/08 09:32:47;;;;;;;4.30;3.50;;;6.10;99.90;;;;;;5081344;28;21023;-54
2022/02/08 09:35:16;;;;;;;3.63;3.17;;;6.10;99.90;;;;;;5078281;28;20428;-57
2022/02/08 09:37:45;;;;;;;4.50;3.00;;;6.20;99.90;;;;;;5078262;28;20504;-58
2022/02/08 09:40:13;;;;;;;6.73;3.60;;;6.20;99.90;;;;;;5079271;28;20458;-57
2022/02/08 09:42:42;;;;;;;2.90;2.47;;;6.30;99.90;;;;;;5077922;28;20471;-48
2022/02/08 09:45:15;;;;;;;5.30;3.23;;;6.30;99.90;;;;;;5077555;28;20449;-56
2022/02/08 09:47:50;;;;;;;4.77;3.23;;;6.40;99.90;;;;;;5077872;28;20521;-57
2022/02/08 09:50:21;;;;;;;6.90;3.60;;;6.30;99.90;;;;;;5077581;28;20464;-60
2022/02/08 09:52:51;;;;;;;7.83;3.23;;;6.30;99.90;;;;;;5077632;28;20506;-58
2022/02/08 09:55:18;;;;;;;7.43;3.60;;;6.40;99.90;;;;;;5077677;28;20455;-55
2022/02/08 09:57:45;;;;;;;3.37;2.83;;;6.40;99.90;;;;;;5077664;28;20477;-55
2022/02/08 10:00:15;;;;;;;5.80;3.40;;;6.50;99.90;;;;;;5077566;28;20456;-58
2022/02/08 10:02:42;;;;;;;5.57;3.13;;;6.60;99.90;;;;;;5077420;28;20896;-56
2022/02/08 10:05:10;;;;;;;9.13;3.20;;;6.60;99.90;;;;;;5077584;28;20471;-58
2022/02/08 10:07:37;;;;;;;7.50;4.33;;;6.60;99.90;;;;;;5077284;28;20458;-57
2022/02/08 10:10:06;;;;;;;4.53;3.07;;;6.60;99.90;;;;;;5077335;28;20479;-55
2022/02/08 10:23:54;;;;;;;12.23;3.90;;;6.80;99.90;;;;;;5076929;28;20740;-60
2022/02/08 10:26:29;;;;;;;5.17;2.33;;;6.90;99.90;;;;;;5077177;28;20456;-53
2022/02/08 10:28:59;;;;;;;4.80;3.33;;;6.90;99.90;;;;;;5077153;28;20531;-56
2022/02/08 10:40:03;;;;;;;4.10;3.10;;;7.00;99.90;;;;;;5077018;28;20869;-57
2022/02/08 10:42:30;;;;;;;5.33;2.47;;;7.00;99.90;;;;;;5076902;28;20426;-56
2022/02/08 10:44:58;;;;;;;8.70;3.57;;;7.10;99.90;;;;;;5076772;28;20473;-55
2022/02/08 10:47:37;;;;;;;20.03;3.80;;;7.10;99.90;;;;;;5076915;28;20454;-55
2022/02/08 10:50:07;;;;;;;8.30;3.30;;;7.10;99.90;;;;;;5076684;28;20493;-58
2022/02/08 10:52:35;;;;;;;4.87;2.80;;;7.10;99.90;;;;;;5076653;28;20445;-60
2022/02/08 10:55:10;;;;;;;9.77;4.07;;;7.10;99.90;;;;;;5076961;28;20575;-56
2022/02/08 10:57:48;;;;;;;6.37;3.23;;;7.20;99.90;;;;;;5078391;28;20482;-60
2022/02/08 11:00:21;;;;;;;11.30;5.27;;;7.20;99.90;;;;;;5076609;28;20436;-51
2022/02/08 11:02:52;;;;;;;3.37;2.40;;;7.20;99.90;;;;;;5076237;28;20907;-56
2022/02/08 11:05:26;;;;;;;4.13;2.87;;;7.30;99.90;;;;;;5076393;28;20450;-57
2022/02/08 11:08:08;;;;;;;6.10;3.60;;;7.20;99.90;;;;;;5076290;28;20477;-57
2022/02/08 11:10:56;;;;;;;7.80;3.73;;;7.20;99.90;;;;;;5076175;28;20438;-55
2022/02/08 11:13:37;;;;;;;3.10;2.40;;;7.30;99.90;;;;;;5076081;28;20834;-57
2022/02/08 11:16:17;;;;;;;11.90;3.90;;;7.30;99.90;;;;;;5076314;28;20446;-56
2022/02/08 11:19:22;;;;;;;9.87;3.67;;;7.30;99.90;;;;;;5076131;28;20504;-57
2022/02/08 11:21:58;;;;;;;5.20;3.23;;;7.40;99.90;;;;;;5075676;28;20519;-56
2022/02/08 11:24:31;;;;;;;4.77;3.67;;;7.40;99.90;;;;;;5073555;28;20529;-58
2022/02/08 11:27:09;;;;;;;6.43;3.63;;;7.40;99.90;;;;;;5074918;28;20464;-54
2022/02/08 11:29:40;;;;;;;5.77;4.00;;;7.50;99.90;;;;;;5075495;28;20453;-59
2022/02/08 11:32:18;;;;;;;10.90;4.10;;;7.50;99.90;;;;;;5075574;28;20429;-60
2022/02/08 11:46:25;;;;;;;5.37;3.63;;;7.60;99.90;;;;;;5075421;28;20448;-56
2022/02/08 11:49:26;;;;;;;11.03;4.53;;;7.70;99.90;;;;;;5075406;28;20430;-52
2022/02/08 11:55:08;;;;;;;7.10;4.00;;;7.80;99.90;;;;;;5074373;28;20450;-58
2022/02/08 11:58:03;;;;;;;7.47;4.00;;;7.80;99.90;;;;;;5075151;28;20527;-60
2022/02/08 12:00:36;;;;;;;12.07;5.80;;;7.80;99.90;;;;;;5074909;28;20853;-60
2022/02/08 12:06:09;;;;;;;16.60;5.20;;;7.90;99.90;;;;;;5069518;28;20439;-58
2022/02/08 12:08:43;;;;;;;8.23;5.87;;;8.00;99.90;;;;;;5075178;28;20419;-60
2022/02/08 12:11:27;;;;;;;7.43;4.67;;;8.00;99.90;;;;;;5076104;28;20457;-51
2022/02/08 12:31:14;;;;;;;8.73;5.20;;;8.30;99.90;;;;;;5083761;28;20464;-56
2022/02/08 12:33:54;;;;;;;7.77;5.73;;;8.30;99.90;;;;;;5099062;28;20475;-57
2022/02/08 12:51:00;;;;;;;10.10;5.40;;;8.50;99.90;;;;;;5064405;28;20917;-55
2022/02/08 12:53:45;;;;;;;12.03;5.37;;;8.50;99.90;;;;;;5100777;28;20472;-53
2022/02/08 12:56:19;;;;;;;11.57;5.23;;;8.50;99.90;;;;;;5102676;28;20422;-49
2022/02/08 12:59:02;;;;;;;9.20;4.43;;;8.60;99.90;;;;;;5100060;28;20490;-53
2022/02/08 13:02:00;;;;;;;9.53;4.00;;;8.60;99.90;;;;;;5085557;28;20449;-55
2022/02/08 14:01:27;;;;;;;7.20;4.63;;;8.90;99.90;;;;;;5083652;28;20449;-48
2022/02/08 14:03:19;;;;;;;13.03;4.93;;;8.90;99.90;;;;;;5080339;28;20496;-54
2022/02/08 14:05:59;;;;;;;5.70;4.70;;;8.90;99.90;;;;;;5080110;28;20521;-54
2022/02/08 14:08:36;;;;;;;11.60;6.13;;;8.90;99.90;;;;;;5079967;28;20449;-51
2022/02/08 14:13:58;;;;;;;9.30;5.57;;;9.00;99.90;;;;;;5077841;28;20453;-49
2022/02/08 14:16:42;;;;;;;11.80;6.53;;;8.90;99.90;;;;;;5080265;28;20895;-51
2022/02/08 14:19:29;;;;;;;6.57;5.83;;;8.90;99.90;;;;;;5080204;28;20503;-53
2022/02/08 14:22:11;;;;;;;8.80;5.70;;;8.90;99.90;;;;;;5083873;28;20518;-51
2022/02/08 14:24:50;;;;;;;7.90;5.40;;;9.00;99.90;;;;;;5085678;28;20477;-56
2022/02/08 14:30:06;;;;;;;17.90;4.80;;;9.00;99.90;;;;;;5082392;28;20453;-61
2022/02/08 14:32:42;;;;;;;7.60;4.77;;;9.00;99.90;;;;;;5083017;28;20471;-59
2022/02/08 14:35:34;;;;;;;11.30;7.03;;;9.00;99.90;;;;;;5082939;28;20557;-57
2022/02/08 14:49:10;;;;;;;7.40;5.47;;;9.00;99.90;;;;;;5086574;28;20927;-61
2022/02/08 15:00:15;;;;;;;9.83;4.40;;;9.10;99.90;;;;;;5080877;28;20511;-60
2022/02/08 15:05:37;;;;;;;10.13;5.60;;;9.10;99.90;;;;;;5081384;28;20442;-61
2022/02/08 15:08:14;;;;;;;9.60;5.97;;;9.10;99.90;;;;;;5082062;28;20463;-56
2022/02/08 15:10:47;;;;;;;12.80;5.00;;;9.10;99.90;;;;;;5081020;28;20430;-56
2022/02/08 15:13:16;;;;;;;6.17;4.10;;;9.10;99.90;;;;;;5080518;28;20446;-55
2022/02/08 15:16:07;;;;;;;19.23;6.73;;;9.10;99.90;;;;;;5081666;28;20519;-60
2022/02/08 15:18:34;;;;;;;6.60;4.20;;;9.20;99.90;;;;;;5082501;28;20481;-55
2022/02/08 15:21:03;;;;;;;7.23;4.77;;;9.20;99.90;;;;;;5082229;28;20469;-60
2022/02/08 15:23:32;;;;;;;9.70;4.90;;;9.30;99.90;;;;;;5081168;28;20449;-58
2022/02/08 15:26:00;;;;;;;11.80;5.63;;;9.30;99.90;;;;;;5081208;28;20540;-62
2022/02/08 15:28:28;;;;;;;6.33;4.80;;;9.30;99.90;;;;;;5080906;28;20990;-57
2022/02/08 15:30:56;;;;;;;8.83;4.97;;;9.30;99.90;;;;;;5080691;28;20461;-61
2022/02/08 15:33:26;;;;;;;7.53;4.43;;;9.40;99.90;;;;;;5080856;28;20474;-63
2022/02/08 15:35:54;;;;;;;5.60;4.30;;;9.40;99.90;;;;;;5080671;28;20462;-58
2022/02/08 15:38:25;;;;;;;5.43;4.30;;;9.40;99.90;;;;;;5080492;28;20545;-58
2022/02/08 15:40:54;;;;;;;4.83;4.00;;;9.50;99.90;;;;;;5080496;28;20484;-59
2022/02/08 15:43:22;;;;;;;6.70;3.60;;;9.50;99.90;;;;;;5080977;28;20442;-60
2022/02/08 15:45:52;;;;;;;7.83;4.50;;;9.50;99.90;;;;;;5083045;28;20457;-57
2022/02/08 15:48:23;;;;;;;5.87;2.37;;;9.60;99.90;;;;;;5083815;28;20453;-57
2022/02/08 15:50:58;;;;;;;5.57;3.60;;;9.50;99.90;;;;;;5081032;28;20423;-59
2022/02/08 15:53:52;;;;;;;5.13;3.40;;;9.50;99.90;;;;;;5080407;28;20477;-57
2022/02/08 16:07:31;;;;;;;7.90;4.17;;;9.50;99.90;;;;;;5080992;28;20928;-61
2022/02/08 16:10:04;;;;;;;9.93;4.93;;;9.50;99.90;;;;;;5081594;28;20451;-57
2022/02/08 16:12:40;;;;;;;6.17;3.20;;;9.50;99.90;;;;;;5081288;28;20443;-59
2022/02/08 16:15:32;;;;;;;4.10;3.20;;;9.40;99.90;;;;;;5081010;28;20434;-61
2022/02/08 16:18:13;;;;;;;6.03;3.83;;;9.40;99.90;;;;;;5080268;28;20453;-61
2022/02/08 16:20:58;;;;;;;4.97;3.30;;;9.40;99.90;;;;;;5080583;28;20541;-61
2022/02/08 16:26:17;;;;;;;5.77;3.80;;;9.30;99.90;;;;;;5079706;28;20430;-60
2022/02/08 16:28:58;;;;;;;4.20;2.90;;;9.30;99.90;;;;;;5080256;28;20433;-60
2022/02/08 16:51:33;;;;;;;7.87;4.33;;;9.30;99.90;;;;;;5079832;28;20456;-61
2022/02/08 16:53:48;;;;;;;4.63;3.30;;;9.30;99.90;;;;;;5079712;28;20469;-53
2022/02/08 16:56:22;;;;;;;8.13;4.80;;;9.20;99.90;;;;;;5079458;28;20456;-61
2022/02/08 16:58:54;;;;;;;7.50;5.00;;;9.20;99.90;;;;;;5080658;28;20963;-60
2022/02/08 17:01:25;;;;;;;7.00;4.37;;;9.20;99.90;;;;;;5082206;28;20423;-60
2022/02/08 17:03:54;;;;;;;7.10;4.70;;;9.20;99.90;;;;;;5080332;28;20435;-63
2022/02/08 17:06:23;;;;;;;6.93;4.30;;;9.20;99.90;;;;;;5079396;28;20475;-60
2022/02/08 17:08:56;;;;;;;8.07;5.07;;;9.20;99.90;;;;;;5079459;28;20474;-61
2022/02/08 17:11:32;;;;;;;6.90;4.17;;;9.20;99.90;;;;;;5079477;28;20518;-61
2022/02/08 17:45:13;;;;;;;5.67;3.80;;;9.20;99.90;;;;;;4991304;28;20423;-61
2022/02/08 17:47:42;;;;;;;4.03;3.40;;;9.20;99.90;;;;;;4982236;28;20442;-63
2022/02/08 17:50:10;;;;;;;7.73;4.97;;;9.10;99.90;;;;;;5037370;28;20443;-61
2022/02/08 17:52:40;;;;;;;7.57;4.87;;;9.20;99.90;;;;;;5062952;28;20447;-61
2022/02/08 17:55:08;;;;;;;8.10;5.17;;;9.20;99.90;;;;;;5063005;28;20462;-61
2022/02/08 17:57:35;;;;;;;7.37;4.60;;;9.20;99.90;;;;;;5062930;28;20467;-59
2022/02/08 18:00:03;;;;;;;6.57;5.00;;;9.20;99.90;;;;;;5063006;28;20483;-57
2022/02/08 18:02:29;;;;;;;5.20;3.53;;;9.20;99.90;;;;;;5064651;28;20467;-58
2022/02/08 18:04:57;;;;;;;7.57;5.13;;;9.20;99.90;;;;;;5065321;28;20529;-56
2022/02/08 18:07:27;;;;;;;7.80;5.10;;;9.20;99.90;;;;;;5063636;28;20522;-60
2022/02/08 18:09:55;;;;;;;8.57;5.23;;;9.20;99.90;;;;;;5062690;28;20443;-57
2022/02/08 18:12:27;;;;;;;10.00;5.90;;;9.20;99.90;;;;;;5062783;28;20473;-60
2022/02/08 18:14:58;;;;;;;10.27;5.50;;;9.20;99.90;;;;;;5062411;28;20471;-63
2022/02/08 18:17:29;;;;;;;5.63;4.30;;;9.20;99.90;;;;;;5062680;28;20945;-58